createdAt,value
2019-04-10T00:04:07.043Z,99859.84
2019-04-10T00:09:11.195Z,99863.67
2019-04-10T00:14:16.390Z,99855.48
2019-04-10T00:19:20.555Z,99864.69
2019-04-10T00:24:24.535Z,99867.77
2019-04-10T00:29:28.474Z,99865.22
2019-04-10T00:34:33.604Z,99869.73
2019-04-10T00:39:38.939Z,99875.92
2019-04-10T00:44:43.847Z,99872.91
2019-04-10T00:49:48.273Z,99878.16
2019-04-10T00:54:52.342Z,99875.94
2019-04-10T00:59:56.825Z,99881.05
2019-04-10T01:05:01.135Z,99883.44
2019-04-10T01:10:06.282Z,99886.09
2019-04-10T01:15:10.295Z,99889.52
2019-04-10T01:20:15.593Z,99898.48
2019-04-10T01:25:19.767Z,99894.69
2019-04-10T01:30:24.366Z,99898.70
2019-04-10T01:35:28.413Z,99902.91
2019-04-10T01:40:32.602Z,99892.34
2019-04-10T01:45:37.650Z,99903.06
2019-04-10T01:50:42.331Z,99904.39
2019-04-10T01:55:47.075Z,99909.45
2019-04-10T02:00:52.083Z,99914.97
2019-04-10T02:05:56.753Z,99911.91
2019-04-10T02:11:00.965Z,99916.30
2019-04-10T02:16:06.132Z,99920.86
2019-04-10T02:21:10.264Z,99928.34
2019-04-10T02:26:14.294Z,99932.44
2019-04-10T02:31:19.160Z,99926.33
2019-04-10T02:36:23.696Z,99927.70
2019-04-10T02:41:27.987Z,99935.85
2019-04-10T02:46:33.155Z,99931.51
2019-04-10T02:51:38.720Z,99941.20
2019-04-10T02:56:43.473Z,99937.16
2019-04-10T03:01:49.742Z,99937.84
2019-04-10T03:06:55.446Z,99950.82
2019-04-10T03:11:59.803Z,99949.92
2019-04-10T03:17:03.889Z,99947.20
2019-04-10T03:22:09.048Z,99941.69
2019-04-10T03:27:14.254Z,99948.59
2019-04-10T03:32:18.897Z,99950.16
2019-04-10T03:37:24.378Z,99952.66
2019-04-10T03:42:28.700Z,99964.09
2019-04-10T03:47:33.466Z,99965.92
2019-04-10T03:52:39.442Z,99966.41
2019-04-10T03:57:43.447Z,99958.47
2019-04-10T04:02:48.310Z,99961.12
2019-04-10T04:07:52.456Z,99965.14
2019-04-10T04:12:57.228Z,99968.28
2019-04-10T04:18:02.417Z,99964.13
2019-04-10T04:23:07.441Z,99961.58
2019-04-10T04:28:11.563Z,99962.35
2019-04-10T04:33:15.723Z,99974.25
2019-04-10T04:38:19.995Z,99973.23
2019-04-10T04:43:25.030Z,99965.22
2019-04-10T04:48:29.331Z,99964.42
2019-04-10T04:53:34.443Z,99970.94
2019-04-10T04:58:38.407Z,99981.61
2019-04-10T05:03:42.466Z,99989.44
2019-04-10T05:08:46.511Z,99997.28
2019-04-10T05:13:50.994Z,100015.44
2019-04-10T05:18:56.180Z,100016.22
2019-04-10T05:24:00.235Z,100017.60
2019-04-10T05:29:04.737Z,100018.36
2019-04-10T05:34:09.336Z,100020.67
2019-04-10T05:39:14.510Z,100017.44
2019-04-10T05:44:19.979Z,100017.64
2019-04-10T05:49:24.663Z,100025.13
2019-04-10T05:54:28.995Z,100028.59
2019-04-10T05:59:34.179Z,100033.28
2019-04-10T06:04:38.667Z,100044.79
2019-04-10T06:09:53.953Z,100040.69
2019-04-10T06:14:48.580Z,100050.25
2019-04-10T06:19:53.079Z,100051.70
2019-04-10T06:24:57.448Z,100057.72
2019-04-10T06:30:01.912Z,100066.83
2019-04-10T06:35:07.929Z,100069.09
2019-04-10T06:40:18.794Z,100079.58
2019-04-10T06:45:18.037Z,100078.23
2019-04-10T06:50:23.052Z,100081.24
2019-04-10T06:55:29.946Z,100085.97
2019-04-10T07:00:34.185Z,100085.44
2019-04-10T07:05:49.489Z,100089.50
2019-04-10T07:10:52.079Z,100097.94
2019-04-10T07:15:49.888Z,100100.00
2019-04-10T07:20:56.378Z,100101.65
2019-04-10T07:25:59.750Z,100108.36
2019-04-10T07:31:08.088Z,100099.92
2019-04-10T07:36:12.890Z,100103.35
2019-04-10T07:41:21.376Z,100107.95
2019-04-10T07:46:22.643Z,100113.70
2019-04-10T07:51:27.660Z,100109.91
2019-04-10T07:56:31.844Z,100128.21
2019-04-10T08:01:35.904Z,100126.16
2019-04-10T08:06:39.935Z,100121.05
2019-04-10T08:11:44.826Z,100122.60
2019-04-10T08:16:49.742Z,100123.92
2019-04-10T08:21:54.834Z,100127.88
2019-04-10T08:26:59.112Z,100133.39
2019-04-10T08:32:03.451Z,100072.79
2019-04-10T08:37:08.131Z,100138.58
2019-04-10T08:42:12.729Z,100149.63
2019-04-10T08:47:17.262Z,100154.99
2019-04-10T08:52:22.108Z,100164.01
2019-04-10T08:57:26.330Z,100164.53
2019-04-10T09:02:30.469Z,100166.52
2019-04-10T09:07:34.515Z,100179.44
2019-04-10T09:12:38.959Z,100178.63
2019-04-10T09:17:43.797Z,100177.10
2019-04-10T09:23:10.372Z,100183.59
2019-04-10T09:27:53.992Z,100188.16
2019-04-10T09:32:59.001Z,100188.16
2019-04-10T09:38:04.231Z,100192.86
2019-04-10T09:43:09.335Z,100191.47
2019-04-10T09:48:13.457Z,100198.50
2019-04-10T09:53:17.477Z,100197.09
2019-04-10T09:58:22.543Z,100205.99
2019-04-10T10:03:26.595Z,100203.61
2019-04-10T10:08:31.612Z,100199.59
2019-04-10T10:13:35.843Z,100200.61
2019-04-10T10:18:40.015Z,100208.03
2019-04-10T10:23:44.675Z,100203.00
2019-04-10T10:28:48.995Z,100198.94
2019-04-10T10:33:54.986Z,100203.76
2019-04-10T10:39:06.841Z,100199.63
2019-04-10T10:44:04.838Z,100204.50
2019-04-10T10:49:08.970Z,100221.02
2019-04-10T10:54:12.934Z,100219.80
2019-04-10T10:59:17.935Z,100216.27
2019-04-10T11:04:23.161Z,100231.24
2019-04-10T11:09:28.516Z,100227.77
2019-04-10T11:14:32.728Z,100232.06
2019-04-10T11:19:37.120Z,100231.98
2019-04-10T11:24:43.147Z,100231.58
2019-04-10T11:29:46.954Z,100242.32
2019-04-10T11:34:51.068Z,100241.56
2019-04-10T11:39:56.280Z,100249.71
2019-04-10T11:45:01.824Z,100249.80
2019-04-10T11:50:09.503Z,100260.02
2019-04-10T11:55:16.167Z,100262.62
2019-04-10T12:00:30.796Z,100252.42
2019-04-10T12:05:36.618Z,100257.14
2019-04-10T12:15:50.495Z,100268.88
2019-04-10T12:20:55.589Z,100266.20
2019-04-10T12:25:59.722Z,100268.03
2019-04-10T12:31:03.878Z,100263.08
2019-04-10T12:36:08.147Z,100263.11
2019-04-10T12:41:12.073Z,100272.11
2019-04-10T12:46:17.767Z,100274.84
2019-04-10T12:51:21.795Z,100284.23
2019-04-10T12:56:26.179Z,100282.30
2019-04-10T13:01:31.263Z,100284.69
2019-04-10T13:06:35.160Z,100282.70
2019-04-10T13:11:39.163Z,100289.17
2019-04-10T13:16:43.186Z,100292.80
2019-04-10T13:21:47.198Z,100292.13
2019-04-10T13:26:52.194Z,100300.92
2019-04-10T13:31:56.275Z,100302.42
2019-04-10T13:37:00.305Z,100310.27
2019-04-10T13:42:05.015Z,100302.69
2019-04-10T13:47:10.287Z,100305.08
2019-04-10T13:52:14.247Z,100296.95
2019-04-10T13:57:22.224Z,100293.12
2019-04-10T14:02:27.757Z,100295.05
2019-04-10T14:07:31.944Z,100287.50
2019-04-10T14:12:37.102Z,100295.77
2019-04-10T14:17:41.717Z,100292.91
2019-04-10T14:22:46.100Z,100298.95
2019-04-10T14:27:50.287Z,100308.26
2019-04-10T14:32:55.245Z,100308.83
2019-04-10T14:37:59.234Z,100322.26
2019-04-10T14:43:03.313Z,100312.75
2019-04-10T14:48:07.882Z,100312.55
2019-04-10T14:53:11.906Z,100311.04
2019-04-10T14:58:24.009Z,100318.08
2019-04-10T15:03:22.477Z,100316.75
2019-04-10T15:08:27.878Z,100327.77
2019-04-10T15:13:32.049Z,100321.63
2019-04-10T15:18:37.129Z,100329.84
2019-04-10T15:23:42.546Z,100331.28
2019-04-10T15:28:47.719Z,100324.05
2019-04-10T15:33:51.924Z,100331.37
2019-04-10T15:38:55.918Z,100325.92
2019-04-10T15:43:59.955Z,100333.62
2019-04-10T15:49:04.167Z,100335.92
2019-04-10T15:54:08.120Z,100335.92
2019-04-10T15:59:12.230Z,100348.17
2019-04-10T16:04:17.101Z,100348.17
2019-04-10T16:09:21.346Z,100339.15
2019-04-10T16:14:28.434Z,100337.54
2019-04-10T16:19:31.269Z,100338.30
2019-04-10T16:24:36.576Z,100335.79
2019-04-10T16:29:40.916Z,100332.83
2019-04-10T16:34:49.063Z,100341.56
2019-04-10T16:40:00.469Z,100341.66
2019-04-10T16:45:01.813Z,100336.10
2019-04-10T16:50:06.380Z,100331.89
2019-04-10T16:55:10.637Z,100334.55
2019-04-10T17:00:17.152Z,100342.13
2019-04-10T17:05:22.643Z,100345.47
2019-04-10T17:10:27.932Z,100355.52
2019-04-10T17:15:34.347Z,100354.09
2019-04-10T17:20:38.571Z,100353.45
2019-04-10T17:25:42.656Z,100349.73
2019-04-10T17:30:46.595Z,100356.89
2019-04-10T17:35:51.578Z,100360.45
2019-04-10T17:40:58.849Z,100372.05
